sensor_id;sensor_type;location;lat;lon;timestamp;P1;durP1;ratioP1;P2;durP2;ratioP2
57301;SDS011;43149;50.974;18.224;2023-03-14T00:06:45;3.30;;;2.30;;
57301;SDS011;43149;50.974;18.224;2023-03-14T00:16:30;8.60;;;3.30;;
57301;SDS011;43149;50.974;18.224;2023-03-14T00:26:18;2.90;;;2.20;;
57301;SDS011;43149;50.974;18.224;2023-03-14T00:36:06;9.70;;;2.60;;
57301;SDS011;43149;50.974;18.224;2023-03-14T00:45:59;5.10;;;2.50;;
57301;SDS011;43149;50.974;18.224;2023-03-14T00:55:43;9.40;;;2.80;;
57301;SDS011;43149;50.974;18.224;2023-03-14T01:05:31;12.50;;;2.50;;
57301;SDS011;43149;50.974;18.224;2023-03-14T01:15:15;7.20;;;2.60;;
57301;SDS011;43149;50.974;18.224;2023-03-14T01:25:01;5.30;;;2.90;;
57301;SDS011;43149;50.974;18.224;2023-03-14T01:34:45;3.00;;;2.50;;
57301;SDS011;43149;50.974;18.224;2023-03-14T01:44:51;2.90;;;1.30;;
57301;SDS011;43149;50.974;18.224;2023-03-14T01:52:15;11.30;;;4.10;;
57301;SDS011;43149;50.974;18.224;2023-03-14T02:02:06;5.10;;;3.10;;
57301;SDS011;43149;50.974;18.224;2023-03-14T02:11:53;7.90;;;4.00;;
57301;SDS011;43149;50.974;18.224;2023-03-14T02:29:26;9.40;;;4.20;;
57301;SDS011;43149;50.974;18.224;2023-03-14T02:39:14;17.20;;;3.10;;
57301;SDS011;43149;50.974;18.224;2023-03-14T02:49:04;8.40;;;2.20;;
57301;SDS011;43149;50.974;18.224;2023-03-14T02:58:51;4.10;;;2.50;;
57301;SDS011;43149;50.974;18.224;2023-03-14T03:08:35;2.70;;;1.70;;
57301;SDS011;43149;50.974;18.224;2023-03-14T03:18:20;2.40;;;1.80;;
57301;SDS011;43149;50.974;18.224;2023-03-14T03:28:04;2.20;;;2.00;;
57301;SDS011;43149;50.974;18.224;2023-03-14T03:37:54;5.50;;;2.20;;
57301;SDS011;43149;50.974;18.224;2023-03-14T03:47:38;10.40;;;2.50;;
57301;SDS011;43149;50.974;18.224;2023-03-14T03:57:22;3.00;;;2.70;;
57301;SDS011;43149;50.974;18.224;2023-03-14T04:07:05;3.20;;;1.60;;
57301;SDS011;43149;50.974;18.224;2023-03-14T04:16:48;5.70;;;3.30;;
57301;SDS011;43149;50.974;18.224;2023-03-14T04:26:36;1.90;;;1.80;;
57301;SDS011;43149;50.974;18.224;2023-03-14T04:36:21;13.40;;;3.10;;
57301;SDS011;43149;50.974;18.224;2023-03-14T04:46:04;4.90;;;3.70;;
57301;SDS011;43149;50.974;18.224;2023-03-14T04:55:52;2.60;;;2.40;;
57301;SDS011;43149;50.974;18.224;2023-03-14T05:05:37;8.70;;;2.40;;
57301;SDS011;43149;50.974;18.224;2023-03-14T05:15:21;5.80;;;3.10;;
57301;SDS011;43149;50.974;18.224;2023-03-14T05:25:07;2.50;;;1.20;;
57301;SDS011;43149;50.974;18.224;2023-03-14T05:34:51;2.70;;;2.00;;
57301;SDS011;43149;50.974;18.224;2023-03-14T05:44:34;3.90;;;1.60;;
57301;SDS011;43149;50.974;18.224;2023-03-14T05:54:18;1.50;;;1.40;;
57301;SDS011;43149;50.974;18.224;2023-03-14T06:04:01;5.00;;;1.60;;
57301;SDS011;43149;50.974;18.224;2023-03-14T06:13:44;6.40;;;2.70;;
57301;SDS011;43149;50.974;18.224;2023-03-14T06:23:27;4.80;;;3.70;;
57301;SDS011;43149;50.974;18.224;2023-03-14T06:33:13;7.90;;;2.90;;
57301;SDS011;43149;50.974;18.224;2023-03-14T06:42:56;4.00;;;3.40;;
57301;SDS011;43149;50.974;18.224;2023-03-14T06:52:40;5.70;;;3.00;;
57301;SDS011;43149;50.974;18.224;2023-03-14T07:02:29;14.40;;;3.60;;
57301;SDS011;43149;50.974;18.224;2023-03-14T07:12:13;14.00;;;1.60;;
57301;SDS011;43149;50.974;18.224;2023-03-14T07:21:56;1.10;;;0.90;;
57301;SDS011;43149;50.974;18.224;2023-03-14T07:31:40;12.60;;;5.40;;
57301;SDS011;43149;50.974;18.224;2023-03-14T07:41:23;2.10;;;1.20;;
57301;SDS011;43149;50.974;18.224;2023-03-14T07:51:08;6.10;;;2.70;;
57301;SDS011;43149;50.974;18.224;2023-03-14T08:00:52;5.00;;;4.00;;
57301;SDS011;43149;50.974;18.224;2023-03-14T08:10:38;8.00;;;2.70;;
57301;SDS011;43149;50.974;18.224;2023-03-14T08:20:24;9.20;;;2.70;;
57301;SDS011;43149;50.974;18.224;2023-03-14T08:30:11;6.90;;;3.90;;
57301;SDS011;43149;50.974;18.224;2023-03-14T08:39:58;4.90;;;3.50;;
57301;SDS011;43149;50.974;18.224;2023-03-14T08:49:42;5.20;;;2.70;;
57301;SDS011;43149;50.974;18.224;2023-03-14T08:59:26;4.80;;;3.00;;
57301;SDS011;43149;50.974;18.224;2023-03-14T09:09:09;5.00;;;2.90;;
57301;SDS011;43149;50.974;18.224;2023-03-14T09:18:53;3.90;;;2.90;;
57301;SDS011;43149;50.974;18.224;2023-03-14T09:28:38;4.70;;;3.30;;
57301;SDS011;43149;50.974;18.224;2023-03-14T09:38:26;11.10;;;3.80;;
57301;SDS011;43149;50.974;18.224;2023-03-14T09:48:15;7.00;;;2.60;;
57301;SDS011;43149;50.974;18.224;2023-03-14T09:58:11;6.60;;;4.30;;
57301;SDS011;43149;50.974;18.224;2023-03-14T10:08:06;4.10;;;3.70;;
57301;SDS011;43149;50.974;18.224;2023-03-14T10:18:02;6.50;;;3.80;;
57301;SDS011;43149;50.974;18.224;2023-03-14T10:27:53;8.40;;;4.90;;
57301;SDS011;43149;50.974;18.224;2023-03-14T10:37:55;7.50;;;5.00;;
57301;SDS011;43149;50.974;18.224;2023-03-14T10:48:06;9.30;;;5.10;;
57301;SDS011;43149;50.974;18.224;2023-03-14T11:29:41;4.70;;;2.90;;
57301;SDS011;43149;50.974;18.224;2023-03-14T11:39:45;12.90;;;4.90;;
57301;SDS011;43149;50.974;18.224;2023-03-14T11:49:48;23.10;;;10.70;;
57301;SDS011;43149;50.974;18.224;2023-03-14T12:10:39;14.20;;;5.00;;
57301;SDS011;43149;50.974;18.224;2023-03-14T12:20:37;16.20;;;7.00;;
57301;SDS011;43149;50.974;18.224;2023-03-14T12:40:30;16.60;;;6.00;;
57301;SDS011;43149;50.974;18.224;2023-03-14T12:50:25;62.00;;;5.20;;
57301;SDS011;43149;50.974;18.224;2023-03-14T13:00:59;25.50;;;9.50;;
57301;SDS011;43149;50.974;18.224;2023-03-14T13:11:02;16.70;;;10.00;;
57301;SDS011;43149;50.974;18.224;2023-03-14T13:20:55;16.30;;;10.40;;
57301;SDS011;43149;50.974;18.224;2023-03-14T13:30:46;23.30;;;7.90;;
57301;SDS011;43149;50.974;18.224;2023-03-14T13:40:47;24.50;;;9.10;;
57301;SDS011;43149;50.974;18.224;2023-03-14T13:51:24;21.20;;;10.80;;
57301;SDS011;43149;50.974;18.224;2023-03-14T14:01:04;8.80;;;5.30;;
57301;SDS011;43149;50.974;18.224;2023-03-14T14:11:18;11.30;;;8.90;;
57301;SDS011;43149;50.974;18.224;2023-03-14T14:21:26;5.20;;;4.30;;
57301;SDS011;43149;50.974;18.224;2023-03-14T14:41:20;23.80;;;13.30;;
57301;SDS011;43149;50.974;18.224;2023-03-14T14:51:08;31.30;;;8.30;;
57301;SDS011;43149;50.974;18.224;2023-03-14T15:01:19;14.10;;;7.20;;
57301;SDS011;43149;50.974;18.224;2023-03-14T15:11:17;19.50;;;9.00;;
57301;SDS011;43149;50.974;18.224;2023-03-14T15:21:02;17.30;;;9.30;;
57301;SDS011;43149;50.974;18.224;2023-03-14T15:30:47;22.90;;;8.10;;
57301;SDS011;43149;50.974;18.224;2023-03-14T15:40:39;24.00;;;11.00;;
57301;SDS011;43149;50.974;18.224;2023-03-14T15:56:03;24.20;;;10.60;;
57301;SDS011;43149;50.974;18.224;2023-03-14T16:05:52;23.30;;;10.60;;
57301;SDS011;43149;50.974;18.224;2023-03-14T16:15:36;23.70;;;10.50;;
57301;SDS011;43149;50.974;18.224;2023-03-14T16:25:21;13.60;;;8.30;;
57301;SDS011;43149;50.974;18.224;2023-03-14T16:35:05;19.10;;;6.70;;
57301;SDS011;43149;50.974;18.224;2023-03-14T16:44:49;20.70;;;10.10;;
57301;SDS011;43149;50.974;18.224;2023-03-14T16:54:34;16.90;;;7.90;;
57301;SDS011;43149;50.974;18.224;2023-03-14T17:04:22;18.80;;;12.00;;
57301;SDS011;43149;50.974;18.224;2023-03-14T17:14:10;106.00;;;40.80;;
57301;SDS011;43149;50.974;18.224;2023-03-14T17:23:56;57.20;;;28.70;;
57301;SDS011;43149;50.974;18.224;2023-03-14T17:33:41;19.20;;;11.80;;
57301;SDS011;43149;50.974;18.224;2023-03-14T17:43:26;17.90;;;10.60;;
57301;SDS011;43149;50.974;18.224;2023-03-14T17:53:14;20.40;;;7.90;;
57301;SDS011;43149;50.974;18.224;2023-03-14T18:02:59;12.70;;;7.80;;
57301;SDS011;43149;50.974;18.224;2023-03-14T18:12:46;24.80;;;9.50;;
57301;SDS011;43149;50.974;18.224;2023-03-14T18:22:38;9.60;;;5.50;;
57301;SDS011;43149;50.974;18.224;2023-03-14T18:32:36;9.10;;;7.20;;
57301;SDS011;43149;50.974;18.224;2023-03-14T18:42:20;16.40;;;7.60;;
57301;SDS011;43149;50.974;18.224;2023-03-14T18:52:05;25.80;;;10.00;;
57301;SDS011;43149;50.974;18.224;2023-03-14T19:01:52;19.40;;;12.60;;
57301;SDS011;43149;50.974;18.224;2023-03-14T19:11:40;22.70;;;3.80;;
57301;SDS011;43149;50.974;18.224;2023-03-14T19:21:27;31.50;;;12.20;;
57301;SDS011;43149;50.974;18.224;2023-03-14T19:31:18;28.00;;;11.40;;
57301;SDS011;43149;50.974;18.224;2023-03-14T19:41:11;37.70;;;14.30;;
57301;SDS011;43149;50.974;18.224;2023-03-14T19:51:01;19.30;;;11.00;;
57301;SDS011;43149;50.974;18.224;2023-03-14T20:00:47;16.20;;;9.20;;
57301;SDS011;43149;50.974;18.224;2023-03-14T20:10:34;24.30;;;8.50;;
57301;SDS011;43149;50.974;18.224;2023-03-14T20:20:19;14.00;;;8.50;;
57301;SDS011;43149;50.974;18.224;2023-03-14T20:30:06;33.40;;;9.60;;
57301;SDS011;43149;50.974;18.224;2023-03-14T20:39:53;14.60;;;8.30;;
57301;SDS011;43149;50.974;18.224;2023-03-14T20:49:38;18.40;;;8.60;;
57301;SDS011;43149;50.974;18.224;2023-03-14T20:59:22;9.40;;;6.80;;
57301;SDS011;43149;50.974;18.224;2023-03-14T21:09:11;11.10;;;6.30;;
57301;SDS011;43149;50.974;18.224;2023-03-14T21:18:58;2.00;;;1.00;;
57301;SDS011;43149;50.974;18.224;2023-03-14T21:28:45;1.10;;;1.00;;
57301;SDS011;43149;50.974;18.224;2023-03-14T21:38:30;4.20;;;0.70;;
57301;SDS011;43149;50.974;18.224;2023-03-14T21:48:18;0.20;;;0.20;;
57301;SDS011;43149;50.974;18.224;2023-03-14T21:58:08;1.70;;;1.60;;
57301;SDS011;43149;50.974;18.224;2023-03-14T22:07:58;0.30;;;0.30;;
57301;SDS011;43149;50.974;18.224;2023-03-14T22:17:41;1.00;;;0.60;;
57301;SDS011;43149;50.974;18.224;2023-03-14T22:27:31;0.80;;;0.80;;
57301;SDS011;43149;50.974;18.224;2023-03-14T22:37:15;6.50;;;6.00;;
57301;SDS011;43149;50.974;18.224;2023-03-14T22:47:00;1.00;;;0.90;;
57301;SDS011;43149;50.974;18.224;2023-03-14T22:56:45;3.20;;;2.50;;
57301;SDS011;43149;50.974;18.224;2023-03-14T23:06:30;1.40;;;0.80;;
57301;SDS011;43149;50.974;18.224;2023-03-14T23:16:16;2.20;;;1.00;;
57301;SDS011;43149;50.974;18.224;2023-03-14T23:26:00;7.20;;;2.20;;
57301;SDS011;43149;50.974;18.224;2023-03-14T23:35:47;1.80;;;1.40;;
57301;SDS011;43149;50.974;18.224;2023-03-14T23:45:31;13.70;;;3.20;;
57301;SDS011;43149;50.974;18.224;2023-03-14T23:55:14;3.80;;;2.80;;
